Rolla, Canada
Current Conditions -  °F | °C
As of 11:00 AM on Saturday 25 Oct 2014 (Local Time) from CYDQ Reporting Station
Few Clouds Few Clouds  
Wind Chill: 25°   Ceiling: Unl
Heat Index: 25°   Visibility: 9mi
Dew Point: 23°   Wind: 2mph
Humidity: 93%   Direction: 170°S
Pressure: 29.84"   Gusts: NA
Location:  55.9°N, 120.14°W
Report Text: CYDQ 251700Z AUTO 17002KT 9SM FEW140 M04/M05 A2984 RMK SLP140
Loading
Personal Weather Stations






























Interactive Weather Map
Tropical Storm Tracking
New forecast layout! Learn more

10-Day Weather Forecast

Advertisements
Track Severe Weather on mobile